Hovedside
METAR-TAF:

METAR-TAF

Lufthavner :

Šiauliai, Litauen

breddegrad: 55-53-38N, lengdegrad: 023-23-42E, høyde over havet: 135 m

Gjeldene værobservasjon

Denne rapporten ble laget for 15 minutter siden, klokken 22:20 UTC
Vind 2 kt fra skiftende retning
Temperatur 15°C
Luftfuktighet 77%
Trykk 1016 hPa
Sikt 10 km eller mer
ingen skyer under 1500 m og ingen bygeskyer

METAR: EYSA 182220Z VRB02KT CAVOK 15/11 Q1016 NOSIG

Tid: 01:35 (22:35 UTC)

Varsel

Denne rapporten ble laget for 2 timer og 35 minutter siden, klokken 20:00 UTC
Varsel gyldig fra 18. klokken 21 UTC til 19. klokken 06 UTC
Vind 4 kt fra skiftende retning
Sikt: 9000 m
Midlertidig
fra 19. klokken 03 UTC til 19. klokken 06 UTC
Spredte skyer i en høyde av 5000 ft, Bygeskyer.

TAF: EYSA 182000Z 1821/1906 VRB04KT 9000 NSC TEMPO 1903/1906 SCT050CB

Værobservasjoner og værvarsel for over 4000 flyplasser (METAR- og TAF-rapporter).

Tilgjengelige stasjoner er representert av de røde og gule prikkene på kartet.

Hold musepekeren over prikken for å se navnet på stasjonen.

Klikk så for å se værobservasjoner og -varsler.

For å forandre kartet kan du klikke på den grønne knappen med svart kryss for å zoome inn, på den grønne knappen med strek for å zoome ut, eller på de grønne pilene for å se tilstøtende kart.


METAR-TAF: